Time;durP1;ratioP1;P1;durP2;ratioP2;P2;SDS_P1;SDS_P2;PMS_P1;PMS_P2;Temp;Humidity;BMP_temperature;BMP_pressure;BME280_temperature;BME280_humidity;BME280_pressure;Samples;Min_cycle;Max_cycle;Signal;HPM_P1;HPM_P2
2022/05/18 00:00:32;;;;;;;4.55;3.75;;;;;;;18.54;60.56;94793.63;5065254;28;20217;-70
2022/05/18 00:03:04;;;;;;;4.72;3.60;;;;;;;18.60;60.40;94790.94;5064451;28;20370;-71
2022/05/18 00:05:34;;;;;;;3.92;3.63;;;;;;;18.61;60.49;94791.78;5063857;28;20573;-68
2022/05/18 00:08:06;;;;;;;3.97;3.67;;;;;;;18.64;60.21;94789.53;5062570;28;20235;-65
2022/05/18 00:10:33;;;;;;;3.97;3.50;;;;;;;18.57;60.10;94787.88;5063221;28;20316;-64
2022/05/18 00:12:58;;;;;;;4.13;3.60;;;;;;;18.40;60.33;94779.53;5065954;28;20259;-69
2022/05/18 00:15:27;;;;;;;6.22;4.25;;;;;;;18.48;59.90;94787.28;5063535;28;20217;-71
2022/05/18 00:17:53;;;;;;;4.32;3.72;;;;;;;18.44;60.20;94781.56;5063013;28;20865;-70
2022/05/18 00:20:19;;;;;;;3.83;3.47;;;;;;;18.39;60.44;94781.38;5061441;28;20315;-69
2022/05/18 00:22:54;;;;;;;3.95;3.65;;;;;;;18.44;60.01;94781.56;5064882;28;20205;-63
2022/05/18 00:25:26;;;;;;;4.35;3.92;;;;;;;18.27;60.48;94781.16;5060426;28;20219;-68
2022/05/18 00:27:52;;;;;;;7.85;4.07;;;;;;;18.31;60.99;94781.56;5065182;28;20228;-66
2022/05/18 00:30:19;;;;;;;4.28;3.88;;;;;;;18.25;61.14;94777.88;5058095;28;20221;-66
2022/05/18 00:32:45;;;;;;;4.30;3.90;;;;;;;18.22;61.11;94782.78;5063199;28;20217;-71
2022/05/18 00:35:12;;;;;;;5.75;3.95;;;;;;;18.30;60.95;94783.41;5064006;28;20235;-71
2022/05/18 00:37:37;;;;;;;4.35;3.53;;;;;;;18.29;60.83;94778.28;5063821;28;20224;-66
2022/05/18 00:40:05;;;;;;;4.10;3.70;;;;;;;18.21;61.08;94791.81;5067635;28;20244;-66
2022/05/18 00:42:30;;;;;;;4.18;3.88;;;;;;;18.25;60.93;94793.03;5062826;28;20299;-69
2022/05/18 00:44:56;;;;;;;4.28;3.97;;;;;;;18.18;60.73;94785.06;5062356;28;20251;-65
2022/05/18 00:47:22;;;;;;;4.20;3.90;;;;;;;18.22;60.62;94788.09;5063265;28;20215;-70
2022/05/18 00:49:56;;;;;;;8.20;4.35;;;;;;;17.94;61.32;94790.97;5066479;28;20196;-66
2022/05/18 00:52:36;;;;;;;4.55;4.20;;;;;;;17.83;61.92;94785.22;5065144;28;20227;-71
2022/05/18 00:55:03;;;;;;;4.70;4.30;;;;;;;17.81;61.92;94789.09;5064023;28;20244;-66
2022/05/18 00:57:38;;;;;;;4.57;4.18;;;;;;;17.87;61.67;94800.78;5062339;28;20228;-65
2022/05/18 01:00:12;;;;;;;4.90;4.50;;;;;;;17.81;61.81;94805.06;5061732;28;20224;-68
2022/05/18 01:02:41;;;;;;;4.65;4.35;;;;;;;17.82;61.41;94796.03;5061997;28;20227;-69
2022/05/18 01:05:10;;;;;;;4.50;4.20;;;;;;;17.73;61.57;94795.41;5064783;28;20193;-71
2022/05/18 01:07:44;;;;;;;4.43;4.13;;;;;;;17.72;61.59;94795.59;5064092;28;20217;-69
2022/05/18 01:10:10;;;;;;;7.22;4.70;;;;;;;17.58;62.35;94795.53;5063094;28;20237;-66
2022/05/18 01:12:35;;;;;;;5.20;4.60;;;;;;;17.58;62.22;94800.88;5065526;28;20228;-66
2022/05/18 01:15:22;;;;;;;5.00;4.60;;;;;;;17.72;61.67;94795.59;5066281;28;20294;-69
2022/05/18 01:17:52;;;;;;;4.82;4.38;;;;;;;17.68;62.12;94784.53;5064102;28;20220;-67
2022/05/18 01:20:22;;;;;;;4.30;4.00;;;;;;;17.55;62.02;94784.50;5067320;28;20235;-69
2022/05/18 01:23:05;;;;;;;5.10;4.55;;;;;;;17.55;62.08;94787.16;5065153;28;20303;-70
2022/05/18 01:25:59;;;;;;;5.43;4.10;;;;;;;17.39;62.66;94785.69;5057813;28;20312;-70
2022/05/18 01:28:31;;;;;;;5.25;4.75;;;;;;;17.53;62.36;94783.88;5061608;28;20279;-71
2022/05/18 01:30:57;;;;;;;5.35;4.70;;;;;;;17.40;62.57;94772.19;5073955;28;20245;-68
2022/05/18 01:33:25;;;;;;;4.85;4.53;;;;;;;17.34;62.93;94777.47;5062209;28;20565;-70
2022/05/18 01:35:52;;;;;;;5.15;4.65;;;;;;;17.38;62.73;94778.75;5061760;28;20274;-64
2022/05/18 01:38:18;;;;;;;4.82;4.53;;;;;;;17.40;62.66;94776.69;5064347;28;20221;-64
2022/05/18 01:41:01;;;;;;;5.13;4.72;;;;;;;17.46;62.60;94772.44;5062839;28;20201;-66
2022/05/18 01:43:44;;;;;;;5.05;4.57;;;;;;;17.32;62.70;94771.53;5069631;28;20221;-64
2022/05/18 01:46:12;;;;;;;4.70;4.30;;;;;;;17.34;62.83;94772.97;5055156;28;20212;-67
2022/05/18 01:48:58;;;;;;;4.97;4.53;;;;;;;17.28;63.03;94767.66;5061317;28;20220;-63
2022/05/18 01:51:35;;;;;;;5.65;5.25;;;;;;;17.24;63.29;94774.38;5056279;28;20256;-66
2022/05/18 01:54:01;;;;;;;5.05;4.63;;;;;;;17.15;63.41;94769.22;5056781;28;20235;-68
2022/05/18 01:56:27;;;;;;;5.30;4.85;;;;;;;17.14;63.62;94761.47;5063502;28;20192;-71
2022/05/18 01:58:53;;;;;;;6.38;4.50;;;;;;;17.15;63.27;94757.78;5064383;28;20221;-66
2022/05/18 02:01:20;;;;;;;4.72;4.40;;;;;;;17.25;62.97;94768.88;5064904;28;20751;-67
2022/05/18 02:03:46;;;;;;;5.05;4.65;;;;;;;17.29;62.91;94762.13;5064182;28;20293;-70
2022/05/18 02:06:12;;;;;;;4.30;4.00;;;;;;;17.27;62.36;94763.34;5080458;28;20256;-62
2022/05/18 02:08:42;;;;;;;4.95;3.95;;;;;;;17.24;61.99;94764.59;5063962;28;20236;-66
2022/05/18 02:11:13;;;;;;;4.18;3.88;;;;;;;17.28;61.69;94757.03;5055500;28;20282;-65
2022/05/18 02:13:39;;;;;;;4.45;4.15;;;;;;;17.31;61.50;94761.94;5059275;28;20362;-72
2022/05/18 02:16:05;;;;;;;3.92;3.63;;;;;;;17.37;61.33;94767.28;5066442;28;20564;-64
2022/05/18 02:18:30;;;;;;;3.90;3.60;;;;;;;17.35;60.90;94763.19;5062374;28;20256;-67
2022/05/18 02:20:56;;;;;;;3.63;3.42;;;;;;;17.19;61.11;94757.22;5063898;28;20222;-66
2022/05/18 02:23:21;;;;;;;4.10;3.80;;;;;;;17.31;60.87;94756.63;5060802;28;20259;-64
2022/05/18 02:25:47;;;;;;;3.80;3.45;;;;;;;17.24;60.49;94759.28;5063645;28;20212;-71
2022/05/18 02:28:12;;;;;;;3.22;3.03;;;;;;;17.14;60.66;94759.63;5064389;28;20228;-65
2022/05/18 02:30:38;;;;;;;3.63;3.08;;;;;;;17.19;60.27;94764.38;5060188;28;20236;-69
2022/05/18 02:33:03;;;;;;;2.65;2.45;;;;;;;17.22;59.95;94748.03;5061842;28;20213;-63
2022/05/18 02:35:29;;;;;;;3.58;3.10;;;;;;;17.23;60.11;94748.84;5060749;28;20232;-67
2022/05/18 02:37:55;;;;;;;2.83;2.63;;;;;;;17.32;59.72;94758.25;5062243;28;20292;-63
2022/05/18 02:40:21;;;;;;;3.22;3.03;;;;;;;17.39;59.93;94754.59;5070932;28;20224;-62
2022/05/18 02:42:47;;;;;;;4.03;3.10;;;;;;;17.32;59.59;94768.88;5061457;28;20234;-67
2022/05/18 02:45:13;;;;;;;3.05;2.75;;;;;;;17.39;58.39;94759.09;5062291;28;20217;-66
2022/05/18 02:47:38;;;;;;;3.33;2.80;;;;;;;17.37;58.36;94761.13;5062751;28;20256;-69
2022/05/18 02:50:04;;;;;;;3.05;2.85;;;;;;;17.36;58.93;94759.50;5065248;28;20216;-70
2022/05/18 02:52:31;;;;;;;3.83;2.63;;;;;;;17.40;58.89;94742.97;5063560;28;20232;-69
2022/05/18 02:57:40;;;;;;;3.13;2.83;;;;;;;17.64;57.94;94760.19;5060712;28;20421;-69
2022/05/18 03:00:07;;;;;;;4.95;3.00;;;;;;;17.64;58.02;94752.22;5055677;28;20221;-67
2022/05/18 03:02:33;;;;;;;3.20;3.00;;;;;;;17.69;58.18;94758.75;5057639;28;20205;-69
2022/05/18 03:04:59;;;;;;;4.50;3.30;;;;;;;17.67;58.25;94761.63;5063397;28;20215;-72
2022/05/18 03:07:24;;;;;;;3.58;3.28;;;;;;;17.63;57.89;94745.25;5057201;28;20212;-66
2022/05/18 03:09:50;;;;;;;3.45;3.20;;;;;;;17.78;58.64;94773.53;5059590;28;20468;-66
2022/05/18 03:12:15;;;;;;;3.30;3.00;;;;;;;17.88;58.06;94773.13;5061101;28;20217;-68
2022/05/18 03:14:40;;;;;;;3.83;3.53;;;;;;;17.87;57.97;94771.50;5061818;28;20220;-67
2022/05/18 03:17:06;;;;;;;4.20;3.90;;;;;;;17.93;57.84;94776.00;5062655;28;20204;-71
2022/05/18 03:19:32;;;;;;;4.03;3.72;;;;;;;17.81;57.52;94765.16;5062335;28;20251;-65
2022/05/18 03:24:41;;;;;;;4.95;4.55;;;;;;;17.76;58.48;94781.69;5067154;28;20235;-67
2022/05/18 03:27:06;;;;;;;5.25;4.85;;;;;;;17.65;58.88;94792.91;5067163;28;20280;-73
2022/05/18 03:29:33;;;;;;;5.28;4.80;;;;;;;17.73;58.54;94786.59;5065321;28;20568;-67
2022/05/18 03:31:58;;;;;;;5.18;4.75;;;;;;;17.76;58.63;94786.19;5065017;28;20279;-71
2022/05/18 03:34:24;;;;;;;5.88;5.00;;;;;;;17.87;58.28;94785.63;5065744;28;20319;-67
2022/05/18 03:36:49;;;;;;;6.85;5.47;;;;;;;17.88;58.51;94787.25;5066765;28;20240;-72
2022/05/18 03:39:15;;;;;;;6.88;5.28;;;;;;;18.00;58.40;94790.16;5068658;28;20365;-66
2022/05/18 03:41:40;;;;;;;5.40;5.00;;;;;;;17.95;58.13;94782.78;5067009;28;20220;-65
2022/05/18 03:44:07;;;;;;;5.57;5.07;;;;;;;18.02;57.86;94796.91;5068158;28;20204;-72
2022/05/18 03:46:35;;;;;;;6.43;5.55;;;;;;;18.02;58.06;94796.91;5049883;28;20272;-65
2022/05/18 03:49:01;;;;;;;6.03;5.30;;;;;;;18.00;58.20;94806.94;5064351;28;20543;-69
2022/05/18 03:51:27;;;;;;;5.72;5.22;;;;;;;18.05;57.92;94812.47;5064525;28;20348;-64
2022/05/18 03:53:53;;;;;;;5.68;5.28;;;;;;;17.97;58.29;94807.34;5064209;28;20221;-65
2022/05/18 03:56:18;;;;;;;5.95;5.45;;;;;;;18.03;58.15;94814.50;5064898;28;20255;-69
2022/05/18 03:58:45;;;;;;;6.13;5.38;;;;;;;18.07;57.87;94807.75;5065901;28;20208;-68
2022/05/18 04:01:11;;;;;;;5.75;5.35;;;;;;;18.04;58.05;94800.19;5066137;28;20232;-66
2022/05/18 04:03:40;;;;;;;6.05;5.55;;;;;;;18.11;57.98;94808.16;5064782;28;20227;-69
2022/05/18 04:06:06;;;;;;;6.55;5.30;;;;;;;18.12;58.01;94807.13;5058713;28;20224;-64
2022/05/18 04:08:32;;;;;;;5.63;5.13;;;;;;;18.05;58.42;94811.66;5063080;28;20542;-69
2022/05/18 04:10:57;;;;;;;6.03;5.43;;;;;;;17.98;59.13;94810.81;5064914;28;20265;-72
2022/05/18 04:13:27;;;;;;;6.03;5.25;;;;;;;17.97;58.84;94807.34;5067513;28;20232;-71
2022/05/18 04:15:54;;;;;;;6.35;5.80;;;;;;;18.14;58.54;94807.75;5080463;28;20232;-67
2022/05/18 04:18:20;;;;;;;5.90;5.40;;;;;;;18.14;58.99;94809.59;5063381;28;20224;-67
2022/05/18 04:20:46;;;;;;;5.97;5.47;;;;;;;18.03;59.32;94819.81;5065906;28;20300;-66
2022/05/18 04:23:12;;;;;;;6.18;5.57;;;;;;;18.14;59.58;94817.59;5065692;28;20272;-66
2022/05/18 04:25:41;;;;;;;5.43;5.03;;;;;;;18.19;60.10;94813.28;5062916;28;20232;-66
2022/05/18 04:28:08;;;;;;;6.18;5.65;;;;;;;18.10;59.98;94822.50;5057955;28;20808;-69
2022/05/18 04:30:34;;;;;;;6.53;5.93;;;;;;;18.13;59.54;94819.44;5063429;28;20221;-67
2022/05/18 04:33:01;;;;;;;5.95;5.35;;;;;;;18.06;59.74;94824.72;5059147;28;20226;-65
2022/05/18 04:35:29;;;;;;;6.00;5.50;;;;;;;18.06;60.12;94822.06;5062613;28;20263;-66
2022/05/18 04:37:56;;;;;;;6.40;5.90;;;;;;;18.06;59.83;94822.06;5062756;28;20258;-73
2022/05/18 04:40:30;;;;;;;5.43;5.03;;;;;;;18.13;60.38;94816.78;5062368;28;20256;-68
2022/05/18 04:42:56;;;;;;;6.40;5.80;;;;;;;18.25;60.18;94814.31;5062847;28;20220;-68
2022/05/18 04:45:22;;;;;;;5.70;5.25;;;;;;;18.20;60.55;94822.94;5064731;28;20308;-67
2022/05/18 04:47:49;;;;;;;7.30;6.20;;;;;;;18.27;60.75;94825.59;5064906;28;20213;-65
2022/05/18 04:50:14;;;;;;;6.70;6.20;;;;;;;18.32;60.59;94822.31;5068642;28;20196;-69
2022/05/18 04:52:40;;;;;;;6.90;6.30;;;;;;;18.35;60.61;94824.56;5080269;28;20212;-67
2022/05/18 04:55:07;;;;;;;7.47;6.78;;;;;;;18.34;60.05;94818.44;5065267;28;20232;-68
2022/05/18 04:57:32;;;;;;;7.50;6.90;;;;;;;18.36;60.12;94827.00;5065424;28;20236;-70
2022/05/18 04:59:58;;;;;;;7.57;6.97;;;;;;;18.29;60.16;94813.72;5063604;28;20235;-71
2022/05/18 05:02:23;;;;;;;7.70;7.00;;;;;;;18.22;61.85;94820.84;5063276;28;20208;-69
2022/05/18 05:04:49;;;;;;;7.88;7.18;;;;;;;18.34;61.41;94820.28;5065194;28;20208;-70
2022/05/18 05:07:14;;;;;;;8.60;7.90;;;;;;;18.32;61.63;94815.13;5067298;28;20221;-70
2022/05/18 05:09:39;;;;;;;8.02;7.32;;;;;;;18.15;61.41;94825.38;5061667;28;20236;-69
2022/05/18 05:12:07;;;;;;;8.65;7.85;;;;;;;18.17;61.46;94825.16;5056397;28;20216;-65
2022/05/18 05:14:37;;;;;;;8.43;7.82;;;;;;;18.24;61.16;94818.81;5056723;28;20299;-62
2022/05/18 05:17:03;;;;;;;8.45;7.60;;;;;;;18.12;61.49;94817.78;5062559;28;20214;-64
2022/05/18 05:19:29;;;;;;;8.95;8.05;;;;;;;18.11;61.72;94829.44;5060801;28;20228;-65
2022/05/18 05:21:54;;;;;;;9.00;8.20;;;;;;;18.12;61.94;94823.09;5063403;28;20235;-64
2022/05/18 05:24:19;;;;;;;10.02;9.23;;;;;;;18.19;61.78;94834.56;5067551;28;20230;-66
2022/05/18 05:26:45;;;;;;;10.07;9.15;;;;;;;18.15;62.40;94835.19;5063970;28;20221;-65
2022/05/18 05:29:12;;;;;;;9.68;8.85;;;;;;;18.13;62.98;94837.25;5060838;28;20217;-65
2022/05/18 05:31:38;;;;;;;10.35;9.48;;;;;;;18.16;62.89;94834.19;5061129;28;20251;-63
2022/05/18 05:34:05;;;;;;;10.10;9.20;;;;;;;18.15;62.54;94843.16;5062070;28;20236;-65
2022/05/18 05:36:34;;;;;;;10.10;9.30;;;;;;;18.11;62.89;94837.44;5061147;28;20906;-65
2022/05/18 05:38:59;;;;;;;9.80;9.00;;;;;;;17.97;63.58;94844.56;5061055;28;20235;-63
2022/05/18 05:41:27;;;;;;;11.60;10.50;;;;;;;18.05;64.25;94843.56;5055799;28;20224;-62
2022/05/18 05:43:56;;;;;;;10.30;9.50;;;;;;;17.91;63.92;94847.22;5063171;28;20208;-62
2022/05/18 05:46:27;;;;;;;10.10;9.27;;;;;;;17.94;64.10;94855.63;5058879;28;20558;-64
2022/05/18 05:48:56;;;;;;;9.70;8.90;;;;;;;17.85;65.10;94854.16;5058351;28;20228;-64
2022/05/18 05:51:23;;;;;;;10.32;9.32;;;;;;;17.93;64.76;94856.63;5062050;28;20225;-69
2022/05/18 05:53:50;;;;;;;11.15;10.15;;;;;;;17.59;67.06;94866.31;5060375;28;20303;-65
2022/05/18 05:56:16;;;;;;;10.75;9.60;;;;;;;17.58;67.08;94872.66;5061092;28;20205;-61
2022/05/18 05:58:43;;;;;;;11.25;10.10;;;;;;;17.59;67.69;94876.16;5065577;28;20216;-65
2022/05/18 06:01:11;;;;;;;11.68;10.48;;;;;;;17.54;68.53;94878.59;5064400;28;20217;-63
2022/05/18 06:03:37;;;;;;;11.48;10.57;;;;;;;17.54;68.72;94883.91;5062773;28;20224;-67
2022/05/18 06:06:04;;;;;;;11.60;10.60;;;;;;;17.30;69.29;94887.88;5063657;28;20216;-68
2022/05/18 06:08:30;;;;;;;11.23;10.32;;;;;;;17.37;69.30;94878.91;5062189;28;20197;-62
2022/05/18 06:10:57;;;;;;;12.50;11.38;;;;;;;17.43;69.06;94885.28;5063716;28;20205;-68
2022/05/18 06:13:22;;;;;;;12.15;11.15;;;;;;;17.38;68.96;94885.03;5063471;28;20255;-67
2022/05/18 06:15:48;;;;;;;11.68;10.68;;;;;;;17.24;69.90;94884.16;5062732;28;20233;-63
2022/05/18 06:18:13;;;;;;;11.18;10.13;;;;;;;17.37;69.30;94884.22;5065125;28;20231;-66
2022/05/18 06:20:39;;;;;;;11.07;9.80;;;;;;;17.34;69.40;94881.94;5063302;28;20221;-65
2022/05/18 06:23:09;;;;;;;11.48;10.48;;;;;;;17.21;70.29;94892.50;5064347;28;20205;-63
2022/05/18 06:25:36;;;;;;;10.25;9.35;;;;;;;17.24;70.22;94893.94;5060122;28;20232;-71
2022/05/18 06:28:02;;;;;;;10.25;9.32;;;;;;;17.10;70.65;94890.41;5059341;28;20248;-67
2022/05/18 06:30:28;;;;;;;9.40;8.50;;;;;;;17.06;70.75;94897.13;5058353;28;20255;-68
2022/05/18 06:32:53;;;;;;;9.57;8.70;;;;;;;17.04;71.32;94904.47;5066217;28;20240;-66
2022/05/18 06:35:19;;;;;;;8.55;7.70;;;;;;;16.89;71.55;94902.75;5064341;28;20221;-68
2022/05/18 06:37:45;;;;;;;8.07;7.38;;;;;;;17.00;70.68;94909.34;5062120;28;20234;-67
2022/05/18 06:40:11;;;;;;;8.77;7.97;;;;;;;17.00;71.75;94909.34;5058925;28;20336;-70
2022/05/18 06:42:38;;;;;;;8.15;7.35;;;;;;;16.97;71.17;94907.91;5060269;28;20316;-71
2022/05/18 06:45:05;;;;;;;8.13;7.43;;;;;;;16.99;71.02;94910.34;5059037;28;20240;-70
2022/05/18 06:47:31;;;;;;;8.65;8.00;;;;;;;16.93;71.30;94909.28;5054660;28;20217;-67
2022/05/18 06:50:00;;;;;;;8.88;7.82;;;;;;;17.00;71.37;94903.19;5055303;28;20196;-66
2022/05/18 06:52:25;;;;;;;8.75;7.85;;;;;;;17.05;71.08;94912.22;5065663;28;20334;-69
2022/05/18 06:54:51;;;;;;;7.47;6.82;;;;;;;17.07;70.82;94915.50;5063712;28;20220;-70
2022/05/18 06:57:17;;;;;;;8.30;7.60;;;;;;;17.19;70.20;94913.16;5062793;28;20236;-73
2022/05/18 06:59:43;;;;;;;8.20;7.50;;;;;;;17.27;70.07;94914.81;5061697;28;20228;-69
2022/05/18 07:02:09;;;;;;;8.00;7.40;;;;;;;17.35;69.54;94920.00;5051078;28;20208;-66
2022/05/18 07:04:35;;;;;;;7.85;7.15;;;;;;;17.35;69.24;94925.31;5062600;28;20209;-67
2022/05/18 07:07:03;;;;;;;9.30;8.20;;;;;;;17.30;69.70;94914.44;5064951;28;20293;-63
2022/05/18 07:09:29;;;;;;;8.68;7.93;;;;;;;17.46;68.77;94927.41;5066229;28;20235;-67
2022/05/18 07:11:55;;;;;;;8.70;7.68;;;;;;;17.61;68.80;94922.78;5064950;28;20224;-68
2022/05/18 07:14:24;;;;;;;8.07;7.38;;;;;;;17.63;68.45;94920.72;5061418;28;20201;-70
2022/05/18 07:16:50;;;;;;;8.52;7.65;;;;;;;17.60;68.06;94923.78;5061305;28;20200;-67
2022/05/18 07:19:18;;;;;;;7.55;7.03;;;;;;;17.58;68.65;94935.63;5061124;28;20227;-67
2022/05/18 07:21:45;;;;;;;9.02;8.27;;;;;;;17.57;68.66;94931.34;5063200;28;20220;-62
2022/05/18 07:24:10;;;;;;;9.30;8.43;;;;;;;17.67;68.41;94928.31;5061678;28;20504;-68
2022/05/18 07:26:37;;;;;;;9.07;8.27;;;;;;;17.80;67.65;94931.06;5065840;28;20221;-68
2022/05/18 07:29:04;;;;;;;8.32;7.55;;;;;;;17.61;67.96;94932.59;5061965;28;20258;-69
2022/05/18 07:31:31;;;;;;;8.98;8.18;;;;;;;17.80;67.39;94937.22;5058805;28;20228;-63
2022/05/18 07:33:56;;;;;;;8.98;8.27;;;;;;;17.79;67.64;94934.75;5060420;28;20762;-68
2022/05/18 07:36:22;;;;;;;9.13;8.23;;;;;;;17.88;66.82;94941.53;5056420;28;20232;-70
2022/05/18 07:38:48;;;;;;;9.00;8.20;;;;;;;17.81;67.09;94944.16;5054264;28;20239;-65
2022/05/18 07:41:16;;;;;;;9.05;8.25;;;;;;;17.91;67.02;94940.31;5064253;28;20212;-67
2022/05/18 07:43:42;;;;;;;9.32;8.52;;;;;;;18.01;66.79;94949.56;5063655;28;20282;-71
2022/05/18 07:46:09;;;;;;;8.82;8.10;;;;;;;18.05;65.31;94947.34;5063016;28;20221;-61
2022/05/18 07:48:36;;;;;;;9.05;8.25;;;;;;;18.22;65.39;94951.25;5051636;28;20221;-67
2022/05/18 07:51:02;;;;;;;9.02;7.68;;;;;;;18.24;65.17;94953.75;5058638;28;20232;-65
2022/05/18 07:53:28;;;;;;;9.25;8.55;;;;;;;18.28;65.25;94957.63;5060977;28;20205;-68
2022/05/18 07:55:54;;;;;;;9.23;8.35;;;;;;;18.36;64.32;94949.44;5059883;28;20210;-67
2022/05/18 07:58:21;;;;;;;9.50;8.70;;;;;;;18.53;64.18;94960.56;5059200;28;20217;-65
2022/05/18 08:00:47;;;;;;;10.57;9.60;;;;;;;18.45;63.95;94966.09;5063467;28;20217;-63
2022/05/18 08:03:15;;;;;;;9.52;8.70;;;;;;;18.37;63.91;94959.09;5064524;28;20216;-66
2022/05/18 08:05:42;;;;;;;9.80;9.00;;;;;;;18.43;63.31;94958.28;5060725;28;20278;-67
2022/05/18 08:08:13;;;;;;;9.45;8.65;;;;;;;18.61;62.97;94965.69;5063145;28;20184;-66
2022/05/18 08:16:09;;;;;;;10.00;9.10;;;;;;;18.94;61.13;94963.06;5068873;28;20296;-61
2022/05/18 08:18:35;;;;;;;9.13;8.32;;;;;;;18.78;60.64;94968.81;5065871;28;20228;-66
2022/05/18 08:21:01;;;;;;;9.25;8.38;;;;;;;19.02;60.08;94974.56;5066865;28;20232;-67
2022/05/18 08:23:27;;;;;;;9.10;8.40;;;;;;;19.10;60.37;94977.84;5075130;28;20198;-62
2022/05/18 08:25:55;;;;;;;8.88;8.27;;;;;;;19.19;60.15;94962.44;5066867;28;20233;-69
2022/05/18 08:28:20;;;;;;;9.25;8.45;;;;;;;19.13;60.38;94968.63;5065453;28;20213;-65
2022/05/18 08:30:46;;;;;;;9.15;8.45;;;;;;;19.14;60.64;94968.44;5063012;28;20228;-65
2022/05/18 08:33:12;;;;;;;9.55;8.77;;;;;;;19.08;60.24;94971.06;5065232;28;20220;-64
2022/05/18 08:35:40;;;;;;;9.07;8.38;;;;;;;19.15;60.46;94971.91;5063904;28;20244;-70
2022/05/18 08:38:05;;;;;;;8.23;7.47;;;;;;;18.99;60.26;94969.66;5066061;28;20193;-68
2022/05/18 08:40:49;;;;;;;8.07;7.47;;;;;;;18.99;60.36;94962.47;5065619;28;20209;-68
2022/05/18 08:43:31;;;;;;;9.18;8.35;;;;;;;19.35;60.23;94955.88;5082801;28;20250;-62
2022/05/18 08:46:38;;;;;;;9.05;7.47;;;;;;;19.39;59.33;94960.59;5062637;28;20231;-67
2022/05/18 08:49:12;;;;;;;7.88;7.15;;;;;;;19.30;58.73;94969.00;4988004;28;20257;-65
2022/05/18 08:52:21;;;;;;;7.72;7.10;;;;;;;19.09;58.32;94970.06;4990548;28;20222;-66
2022/05/18 08:54:53;;;;;;;8.18;7.38;;;;;;;19.04;58.28;94964.53;4903002;29;20321;-68
2022/05/18 08:57:25;;;;;;;7.97;7.30;;;;;;;19.39;57.91;94962.44;4910466;29;20222;-65
2022/05/18 08:59:57;;;;;;;8.05;7.30;;;;;;;19.65;56.97;94961.56;4913363;29;20277;-65
2022/05/18 09:02:27;;;;;;;8.07;7.22;;;;;;;19.75;57.04;94958.47;4909539;29;20218;-68
2022/05/18 09:05:04;;;;;;;8.50;7.57;;;;;;;19.71;56.86;94943.94;4895617;29;20206;-63
2022/05/18 09:07:37;;;;;;;7.50;6.82;;;;;;;19.86;56.79;94949.00;4909964;29;20222;-66
2022/05/18 09:10:12;;;;;;;7.00;6.50;;;;;;;20.21;55.50;94952.16;4894677;29;20229;-62
2022/05/18 09:12:40;;;;;;;8.13;6.53;;;;;;;20.22;54.43;94946.59;4910002;29;20236;-64
2022/05/18 09:15:08;;;;;;;6.40;5.70;;;;;;;20.27;54.77;94940.63;4911993;29;20824;-66
2022/05/18 09:18:09;;;;;;;7.00;6.28;;;;;;;20.04;55.07;94935.78;4892629;29;20245;-64
2022/05/18 09:20:46;;;;;;;6.03;5.57;;;;;;;19.81;55.70;94945.13;4847604;29;20262;-68
2022/05/18 09:23:43;;;;;;;7.55;5.95;;;;;;;19.82;56.15;94938.75;4835964;29;20228;-62
2022/05/18 09:26:21;;;;;;;6.25;5.72;;;;;;;20.12;55.16;94930.22;4842851;29;20250;-66
2022/05/18 09:28:59;;;;;;;6.28;5.43;;;;;;;20.23;53.97;94931.38;4935835;28;20216;-62
2022/05/18 09:31:48;;;;;;;5.85;5.20;;;;;;;20.22;53.90;94922.56;4966927;28;20233;-65
2022/05/18 09:34:46;;;;;;;6.55;5.30;;;;;;;20.18;54.88;94929.38;4965981;28;20231;-69
2022/05/18 09:37:23;;;;;;;8.10;4.85;;;;;;;20.16;54.50;94935.97;4980647;28;20320;-62
2022/05/18 09:40:20;;;;;;;5.07;4.60;;;;;;;20.17;51.88;94921.56;4982017;28;20231;-69
2022/05/18 09:42:52;;;;;;;5.50;5.00;;;;;;;20.23;52.08;94916.22;4963549;28;20258;-64
2022/05/18 09:45:23;;;;;;;4.97;4.47;;;;;;;20.45;51.68;94919.38;4967034;28;20237;-65
2022/05/18 09:48:02;;;;;;;4.93;4.50;;;;;;;20.66;51.23;94904.03;4985087;28;20242;-66
2022/05/18 09:50:29;;;;;;;5.53;5.13;;;;;;;20.81;50.09;94907.19;4980383;28;20255;-62
2022/05/18 09:52:56;;;;;;;9.27;4.82;;;;;;;20.86;49.60;94898.53;4967559;28;20208;-64
2022/05/18 09:55:27;;;;;;;5.25;4.60;;;;;;;20.75;49.34;94907.28;4982707;28;20254;-64
2022/05/18 09:57:59;;;;;;;4.22;3.90;;;;;;;20.69;48.84;94909.78;5011511;28;20297;-69
2022/05/18 10:00:29;;;;;;;4.78;3.88;;;;;;;20.69;49.02;94912.44;5073200;28;20229;-66
2022/05/18 10:08:48;;;;;;;5.38;4.63;;;;;;;20.75;49.87;94939.34;5059197;28;20667;-65
2022/05/18 10:11:19;;;;;;;7.65;5.45;;;;;;;20.96;50.24;94930.13;5062972;28;20212;-67
2022/05/18 10:14:26;;;;;;;7.60;5.47;;;;;;;20.76;51.94;94952.47;5062235;28;20231;-62
2022/05/18 10:17:06;;;;;;;6.28;5.57;;;;;;;20.51;54.28;94955.06;5065736;28;20289;-64
2022/05/18 10:20:04;;;;;;;7.13;5.65;;;;;;;20.17;56.56;94951.75;5059551;28;20378;-65
2022/05/18 10:22:41;;;;;;;6.20;5.70;;;;;;;19.94;56.46;94968.28;5063188;28;20237;-63
2022/05/18 10:25:40;;;;;;;7.30;5.65;;;;;;;19.70;58.18;94971.63;5058100;28;20278;-63
2022/05/18 10:28:20;;;;;;;10.32;5.95;;;;;;;19.40;60.87;94964.06;5064569;28;20244;-64
2022/05/18 10:31:05;;;;;;;8.18;6.05;;;;;;;19.01;65.18;94980.94;5062390;28;20231;-68
2022/05/18 10:33:41;;;;;;;8.43;5.82;;;;;;;19.00;63.00;94987.28;5062686;28;20298;-62
2022/05/18 10:36:14;;;;;;;13.82;7.30;;;;;;;18.51;66.10;95005.22;5065102;28;20224;-63
2022/05/18 10:38:55;;;;;;;7.88;6.00;;;;;;;18.30;67.25;95011.50;5064177;28;20228;-67
2022/05/18 10:41:26;;;;;;;13.20;7.22;;;;;;;18.16;68.00;95023.13;5063586;28;20322;-63
2022/05/18 10:44:21;;;;;;;11.38;6.53;;;;;;;18.13;68.71;95023.50;5065823;28;20201;-65
2022/05/18 10:46:51;;;;;;;8.35;6.07;;;;;;;18.08;68.55;95018.78;5059478;28;20755;-65
2022/05/18 10:49:37;;;;;;;5.28;4.72;;;;;;;17.87;68.40;95027.69;5054740;28;20228;-63
2022/05/18 10:52:18;;;;;;;6.72;5.18;;;;;;;17.96;68.01;95029.19;5043308;28;20228;-67
2022/05/18 10:54:55;;;;;;;7.13;5.13;;;;;;;18.14;66.19;95038.44;5064774;28;20225;-64
2022/05/18 10:57:38;;;;;;;6.53;5.43;;;;;;;18.25;66.27;95048.53;5062535;28;20387;-67
2022/05/18 11:00:12;;;;;;;10.20;5.28;;;;;;;18.17;67.53;95046.03;5080575;28;20228;-63
2022/05/18 11:03:00;;;;;;;7.05;5.07;;;;;;;17.98;67.13;95040.41;5055708;28;20308;-64
2022/05/18 11:05:59;;;;;;;5.93;4.10;;;;;;;18.01;64.94;95058.63;5060702;28;20221;-61
2022/05/18 11:08:31;;;;;;;6.43;4.28;;;;;;;18.14;65.48;95060.56;5057122;28;20215;-69
2022/05/18 11:11:33;;;;;;;5.78;4.95;;;;;;;18.30;65.39;95064.72;5063900;28;20204;-65
2022/05/18 11:14:30;;;;;;;5.05;4.03;;;;;;;18.34;65.75;95065.97;5063922;28;20231;-62
2022/05/18 11:17:55;;;;;;;6.20;4.10;;;;;;;18.65;64.49;95072.63;5057164;28;20228;-68
2022/05/18 11:20:56;;;;;;;4.15;3.08;;;;;;;18.88;62.80;95075.81;4962461;28;20234;-64
2022/05/18 11:23:39;;;;;;;6.95;3.60;;;;;;;19.11;62.67;95071.94;4980806;28;20207;-63
2022/05/18 11:26:27;;;;;;;6.43;2.90;;;;;;;19.13;62.74;95075.22;4960957;28;20222;-66
2022/05/18 11:29:30;;;;;;;3.72;2.88;;;;;;;18.84;63.13;95076.41;4960239;28;20301;-69
2022/05/18 11:32:17;;;;;;;2.50;2.30;;;;;;;18.72;63.12;95073.47;4976853;28;20231;-66
2022/05/18 11:35:20;;;;;;;2.90;2.70;;;;;;;18.75;64.45;95083.75;4959259;28;20394;-65
2022/05/18 11:38:06;;;;;;;7.25;2.28;;;;;;;18.42;62.75;95092.44;4968811;28;20255;-63
2022/05/18 11:41:06;;;;;;;2.15;1.90;;;;;;;18.49;62.46;95095.91;4973772;28;20223;-70
2022/05/18 11:44:19;;;;;;;1.75;1.63;;;;;;;18.32;62.42;95091.16;4977424;28;20261;-63
2022/05/18 11:46:53;;;;;;;2.30;2.10;;;;;;;17.96;63.35;95101.00;4912686;29;20225;-70
2022/05/18 11:49:29;;;;;;;2.10;1.70;;;;;;;17.99;65.13;95113.06;4930283;29;20256;-67
2022/05/18 11:52:19;;;;;;;1.63;1.33;;;;;;;17.85;62.52;95120.13;4962846;28;20238;-71
2022/05/18 11:55:14;;;;;;;1.40;1.13;;;;;;;17.82;61.08;95115.22;4943148;28;20259;-64
2022/05/18 11:57:59;;;;;;;1.17;1.00;;;;;;;17.64;60.61;95111.19;4925136;28;20234;-68
2022/05/18 12:00:57;;;;;;;1.80;1.00;;;;;;;17.13;60.52;95118.50;4944398;28;20229;-65
2022/05/18 12:03:41;;;;;;;1.60;0.93;;;;;;;17.33;61.11;95127.47;4937525;28;20258;-67
2022/05/18 12:06:23;;;;;;;1.10;1.00;;;;;;;17.12;62.37;95135.44;4946060;28;20264;-63
2022/05/18 12:09:07;;;;;;;1.30;1.20;;;;;;;17.53;61.99;95129.47;4927871;29;20248;-67